sensor_id;sensor_type;location;lat;lon;timestamp;P1;durP1;ratioP1;P2;durP2;ratioP2
75616;SDS011;64200;55.426;37.758;2023-06-24T00:04:36;13.90;;;10.00;;
75616;SDS011;64200;55.426;37.758;2023-06-24T00:09:37;12.50;;;9.40;;
75616;SDS011;64200;55.426;37.758;2023-06-24T00:14:37;13.32;;;8.70;;
75616;SDS011;64200;55.426;37.758;2023-06-24T00:19:38;12.03;;;8.47;;
75616;SDS011;64200;55.426;37.758;2023-06-24T00:24:38;13.00;;;8.95;;
75616;SDS011;64200;55.426;37.758;2023-06-24T00:29:39;12.23;;;9.60;;
75616;SDS011;64200;55.426;37.758;2023-06-24T00:34:40;12.85;;;9.80;;
75616;SDS011;64200;55.426;37.758;2023-06-24T00:39:43;11.93;;;9.02;;
75616;SDS011;64200;55.426;37.758;2023-06-24T00:44:44;10.82;;;8.07;;
75616;SDS011;64200;55.426;37.758;2023-06-24T00:49:45;12.30;;;8.85;;
75616;SDS011;64200;55.426;37.758;2023-06-24T00:54:45;11.25;;;8.52;;
75616;SDS011;64200;55.426;37.758;2023-06-24T00:59:46;12.83;;;8.43;;
75616;SDS011;64200;55.426;37.758;2023-06-24T01:04:47;11.95;;;9.25;;
75616;SDS011;64200;55.426;37.758;2023-06-24T01:09:48;11.90;;;8.25;;
75616;SDS011;64200;55.426;37.758;2023-06-24T01:14:49;14.00;;;8.63;;
75616;SDS011;64200;55.426;37.758;2023-06-24T01:19:53;13.07;;;8.80;;
75616;SDS011;64200;55.426;37.758;2023-06-24T01:35:21;13.95;;;8.85;;
75616;SDS011;64200;55.426;37.758;2023-06-24T01:40:27;11.57;;;7.97;;
75616;SDS011;64200;55.426;37.758;2023-06-24T01:45:37;12.77;;;8.35;;
75616;SDS011;64200;55.426;37.758;2023-06-24T01:50:50;12.32;;;8.93;;
75616;SDS011;64200;55.426;37.758;2023-06-24T01:56:04;10.43;;;8.50;;
75616;SDS011;64200;55.426;37.758;2023-06-24T02:01:07;12.18;;;9.00;;
75616;SDS011;64200;55.426;37.758;2023-06-24T02:06:08;11.20;;;8.27;;
75616;SDS011;64200;55.426;37.758;2023-06-24T02:11:10;10.13;;;7.82;;
75616;SDS011;64200;55.426;37.758;2023-06-24T02:16:12;10.27;;;7.57;;
75616;SDS011;64200;55.426;37.758;2023-06-24T02:21:16;10.50;;;7.82;;
75616;SDS011;64200;55.426;37.758;2023-06-24T02:26:19;14.25;;;8.23;;
75616;SDS011;64200;55.426;37.758;2023-06-24T02:31:22;17.50;;;7.95;;
75616;SDS011;64200;55.426;37.758;2023-06-24T02:36:22;14.38;;;9.90;;
75616;SDS011;64200;55.426;37.758;2023-06-24T02:41:24;10.30;;;7.72;;
75616;SDS011;64200;55.426;37.758;2023-06-24T02:46:25;10.70;;;7.30;;
75616;SDS011;64200;55.426;37.758;2023-06-24T02:51:29;10.23;;;8.25;;
75616;SDS011;64200;55.426;37.758;2023-06-24T02:56:30;10.27;;;7.88;;
75616;SDS011;64200;55.426;37.758;2023-06-24T03:01:31;8.80;;;7.20;;
75616;SDS011;64200;55.426;37.758;2023-06-24T03:06:38;10.85;;;7.35;;
75616;SDS011;64200;55.426;37.758;2023-06-24T03:11:41;9.60;;;7.00;;
75616;SDS011;64200;55.426;37.758;2023-06-24T03:16:42;11.88;;;7.22;;
75616;SDS011;64200;55.426;37.758;2023-06-24T03:21:43;10.57;;;7.13;;
75616;SDS011;64200;55.426;37.758;2023-06-24T03:26:43;13.30;;;8.20;;
75616;SDS011;64200;55.426;37.758;2023-06-24T03:31:44;10.15;;;6.90;;
75616;SDS011;64200;55.426;37.758;2023-06-24T03:36:45;6.72;;;5.40;;
75616;SDS011;64200;55.426;37.758;2023-06-24T03:41:46;10.32;;;5.78;;
75616;SDS011;64200;55.426;37.758;2023-06-24T03:46:46;9.00;;;6.60;;
75616;SDS011;64200;55.426;37.758;2023-06-24T03:51:47;7.72;;;5.68;;
75616;SDS011;64200;55.426;37.758;2023-06-24T03:56:47;6.73;;;5.03;;
75616;SDS011;64200;55.426;37.758;2023-06-24T04:01:48;4.60;;;3.07;;
75616;SDS011;64200;55.426;37.758;2023-06-24T04:06:51;4.38;;;2.30;;
75616;SDS011;64200;55.426;37.758;2023-06-24T04:11:52;3.08;;;2.50;;
75616;SDS011;64200;55.426;37.758;2023-06-24T04:16:52;4.35;;;1.98;;
75616;SDS011;64200;55.426;37.758;2023-06-24T04:21:53;3.53;;;1.67;;
75616;SDS011;64200;55.426;37.758;2023-06-24T04:26:53;2.10;;;1.20;;
75616;SDS011;64200;55.426;37.758;2023-06-24T04:31:55;4.43;;;1.20;;
75616;SDS011;64200;55.426;37.758;2023-06-24T04:36:55;1.10;;;0.90;;
75616;SDS011;64200;55.426;37.758;2023-06-24T04:41:56;1.77;;;0.80;;
75616;SDS011;64200;55.426;37.758;2023-06-24T04:46:56;1.20;;;0.63;;
75616;SDS011;64200;55.426;37.758;2023-06-24T04:51:59;0.82;;;0.60;;
75616;SDS011;64200;55.426;37.758;2023-06-24T04:57:01;1.83;;;0.60;;
75616;SDS011;64200;55.426;37.758;2023-06-24T05:02:01;1.10;;;0.60;;
75616;SDS011;64200;55.426;37.758;2023-06-24T05:07:03;1.55;;;0.57;;
75616;SDS011;64200;55.426;37.758;2023-06-24T05:12:06;2.20;;;0.73;;
75616;SDS011;64200;55.426;37.758;2023-06-24T05:17:08;1.73;;;0.70;;
75616;SDS011;64200;55.426;37.758;2023-06-24T05:22:08;1.33;;;0.60;;
75616;SDS011;64200;55.426;37.758;2023-06-24T05:27:09;2.17;;;0.65;;
75616;SDS011;64200;55.426;37.758;2023-06-24T05:32:10;0.82;;;0.68;;
75616;SDS011;64200;55.426;37.758;2023-06-24T05:37:10;1.00;;;0.60;;
75616;SDS011;64200;55.426;37.758;2023-06-24T05:42:11;0.73;;;0.57;;
75616;SDS011;64200;55.426;37.758;2023-06-24T05:47:12;0.80;;;0.63;;
75616;SDS011;64200;55.426;37.758;2023-06-24T05:52:12;2.00;;;0.82;;
75616;SDS011;64200;55.426;37.758;2023-06-24T05:57:13;2.33;;;1.10;;
75616;SDS011;64200;55.426;37.758;2023-06-24T06:02:13;1.08;;;0.95;;
75616;SDS011;64200;55.426;37.758;2023-06-24T06:07:14;1.75;;;0.85;;
75616;SDS011;64200;55.426;37.758;2023-06-24T06:12:14;1.97;;;0.90;;
75616;SDS011;64200;55.426;37.758;2023-06-24T06:17:15;2.63;;;0.70;;
75616;SDS011;64200;55.426;37.758;2023-06-24T06:22:15;1.43;;;0.93;;
75616;SDS011;64200;55.426;37.758;2023-06-24T06:27:16;1.00;;;0.90;;
75616;SDS011;64200;55.426;37.758;2023-06-24T06:32:17;2.17;;;0.90;;
75616;SDS011;64200;55.426;37.758;2023-06-24T06:37:17;2.10;;;1.00;;
75616;SDS011;64200;55.426;37.758;2023-06-24T06:42:18;2.38;;;1.00;;
75616;SDS011;64200;55.426;37.758;2023-06-24T06:47:18;4.33;;;0.90;;
75616;SDS011;64200;55.426;37.758;2023-06-24T06:52:19;1.77;;;0.70;;
75616;SDS011;64200;55.426;37.758;2023-06-24T06:57:20;3.70;;;0.90;;
75616;SDS011;64200;55.426;37.758;2023-06-24T07:02:20;3.83;;;0.90;;
75616;SDS011;64200;55.426;37.758;2023-06-24T07:07:21;2.13;;;1.20;;
75616;SDS011;64200;55.426;37.758;2023-06-24T07:12:30;1.58;;;1.20;;
75616;SDS011;64200;55.426;37.758;2023-06-24T07:17:31;2.33;;;1.17;;
75616;SDS011;64200;55.426;37.758;2023-06-24T07:22:32;1.63;;;0.98;;
75616;SDS011;64200;55.426;37.758;2023-06-24T07:27:32;4.05;;;1.80;;
75616;SDS011;64200;55.426;37.758;2023-06-24T07:32:33;2.92;;;0.85;;
75616;SDS011;64200;55.426;37.758;2023-06-24T07:37:34;1.95;;;1.20;;
75616;SDS011;64200;55.426;37.758;2023-06-24T07:42:34;1.23;;;0.80;;
75616;SDS011;64200;55.426;37.758;2023-06-24T07:47:35;1.60;;;1.17;;
75616;SDS011;64200;55.426;37.758;2023-06-24T07:52:36;0.80;;;0.80;;
75616;SDS011;64200;55.426;37.758;2023-06-24T07:57:37;2.30;;;1.30;;
75616;SDS011;64200;55.426;37.758;2023-06-24T08:02:38;2.05;;;1.33;;
75616;SDS011;64200;55.426;37.758;2023-06-24T08:07:38;2.90;;;1.23;;
75616;SDS011;64200;55.426;37.758;2023-06-24T08:12:39;1.80;;;1.23;;
75616;SDS011;64200;55.426;37.758;2023-06-24T08:17:39;1.88;;;1.20;;
75616;SDS011;64200;55.426;37.758;2023-06-24T08:22:40;1.98;;;1.40;;
75616;SDS011;64200;55.426;37.758;2023-06-24T08:27:41;2.08;;;1.08;;
75616;SDS011;64200;55.426;37.758;2023-06-24T08:32:43;2.38;;;1.65;;
75616;SDS011;64200;55.426;37.758;2023-06-24T08:37:43;2.30;;;1.45;;
75616;SDS011;64200;55.426;37.758;2023-06-24T08:42:44;4.13;;;1.27;;
75616;SDS011;64200;55.426;37.758;2023-06-24T08:47:44;2.05;;;1.35;;
75616;SDS011;64200;55.426;37.758;2023-06-24T08:52:51;5.18;;;1.60;;
75616;SDS011;64200;55.426;37.758;2023-06-24T08:57:52;2.13;;;1.48;;
75616;SDS011;64200;55.426;37.758;2023-06-24T09:03:02;5.30;;;1.95;;
75616;SDS011;64200;55.426;37.758;2023-06-24T09:08:03;2.92;;;1.80;;
75616;SDS011;64200;55.426;37.758;2023-06-24T09:13:05;2.55;;;1.92;;
75616;SDS011;64200;55.426;37.758;2023-06-24T09:18:06;4.40;;;1.67;;
75616;SDS011;64200;55.426;37.758;2023-06-24T09:23:07;2.20;;;2.00;;
75616;SDS011;64200;55.426;37.758;2023-06-24T09:28:07;2.50;;;1.75;;
75616;SDS011;64200;55.426;37.758;2023-06-24T09:33:10;5.65;;;2.00;;
75616;SDS011;64200;55.426;37.758;2023-06-24T09:38:11;5.35;;;2.22;;
75616;SDS011;64200;55.426;37.758;2023-06-24T09:43:16;3.08;;;2.40;;
75616;SDS011;64200;55.426;37.758;2023-06-24T09:48:20;5.40;;;2.10;;
75616;SDS011;64200;55.426;37.758;2023-06-24T09:53:21;5.47;;;2.58;;
75616;SDS011;64200;55.426;37.758;2023-06-24T09:58:23;6.50;;;2.88;;
75616;SDS011;64200;55.426;37.758;2023-06-24T10:03:24;4.28;;;2.20;;
75616;SDS011;64200;55.426;37.758;2023-06-24T10:08:25;4.25;;;2.00;;
75616;SDS011;64200;55.426;37.758;2023-06-24T10:13:27;2.80;;;2.25;;
75616;SDS011;64200;55.426;37.758;2023-06-24T10:44:55;5.95;;;3.38;;
75616;SDS011;64200;55.426;37.758;2023-06-24T10:49:57;6.20;;;3.03;;
75616;SDS011;64200;55.426;37.758;2023-06-24T10:54:58;9.68;;;3.65;;
75616;SDS011;64200;55.426;37.758;2023-06-24T10:59:59;13.60;;;7.43;;
75616;SDS011;64200;55.426;37.758;2023-06-24T11:05:02;11.20;;;6.13;;
75616;SDS011;64200;55.426;37.758;2023-06-24T11:15:06;7.15;;;5.18;;
75616;SDS011;64200;55.426;37.758;2023-06-24T11:20:09;8.32;;;5.88;;
75616;SDS011;64200;55.426;37.758;2023-06-24T11:25:17;6.35;;;5.28;;
75616;SDS011;64200;55.426;37.758;2023-06-24T11:30:21;7.40;;;4.47;;
75616;SDS011;64200;55.426;37.758;2023-06-24T11:35:22;5.00;;;4.50;;
75616;SDS011;64200;55.426;37.758;2023-06-24T11:40:23;7.22;;;4.32;;
75616;SDS011;64200;55.426;37.758;2023-06-24T11:45:24;8.85;;;4.53;;
75616;SDS011;64200;55.426;37.758;2023-06-24T11:50:25;6.60;;;4.90;;
75616;SDS011;64200;55.426;37.758;2023-06-24T11:55:27;6.30;;;4.30;;
75616;SDS011;64200;55.426;37.758;2023-06-24T12:05:46;7.47;;;4.13;;
75616;SDS011;64200;55.426;37.758;2023-06-24T12:10:47;6.88;;;4.43;;
75616;SDS011;64200;55.426;37.758;2023-06-24T12:15:47;4.63;;;3.78;;
75616;SDS011;64200;55.426;37.758;2023-06-24T12:20:49;6.43;;;4.75;;
75616;SDS011;64200;55.426;37.758;2023-06-24T12:25:50;5.73;;;5.00;;
75616;SDS011;64200;55.426;37.758;2023-06-24T12:30:50;7.07;;;5.30;;
75616;SDS011;64200;55.426;37.758;2023-06-24T12:35:51;7.20;;;5.18;;
75616;SDS011;64200;55.426;37.758;2023-06-24T12:40:52;7.93;;;5.00;;
75616;SDS011;64200;55.426;37.758;2023-06-24T12:45:52;8.32;;;5.82;;
75616;SDS011;64200;55.426;37.758;2023-06-24T12:50:53;7.13;;;4.77;;
75616;SDS011;64200;55.426;37.758;2023-06-24T12:55:53;8.27;;;4.95;;
75616;SDS011;64200;55.426;37.758;2023-06-24T13:00:55;7.70;;;6.03;;
75616;SDS011;64200;55.426;37.758;2023-06-24T13:05:55;7.78;;;5.30;;
75616;SDS011;64200;55.426;37.758;2023-06-24T13:10:57;7.90;;;4.57;;
75616;SDS011;64200;55.426;37.758;2023-06-24T13:15:58;6.63;;;4.03;;
75616;SDS011;64200;55.426;37.758;2023-06-24T13:20:58;4.60;;;3.90;;
75616;SDS011;64200;55.426;37.758;2023-06-24T13:25:59;5.18;;;3.90;;
75616;SDS011;64200;55.426;37.758;2023-06-24T13:30:59;7.22;;;4.55;;
75616;SDS011;64200;55.426;37.758;2023-06-24T13:36:04;6.13;;;4.28;;
75616;SDS011;64200;55.426;37.758;2023-06-24T13:41:07;5.50;;;4.90;;
75616;SDS011;64200;55.426;37.758;2023-06-24T13:46:08;5.43;;;3.78;;
75616;SDS011;64200;55.426;37.758;2023-06-24T13:51:09;6.32;;;3.85;;
75616;SDS011;64200;55.426;37.758;2023-06-24T13:56:09;6.38;;;4.10;;
75616;SDS011;64200;55.426;37.758;2023-06-24T14:01:10;5.10;;;3.70;;
75616;SDS011;64200;55.426;37.758;2023-06-24T14:06:10;6.63;;;3.78;;
75616;SDS011;64200;55.426;37.758;2023-06-24T14:11:11;5.85;;;3.72;;
75616;SDS011;64200;55.426;37.758;2023-06-24T14:16:12;6.22;;;4.05;;
75616;SDS011;64200;55.426;37.758;2023-06-24T14:21:13;9.00;;;5.40;;
75616;SDS011;64200;55.426;37.758;2023-06-24T14:26:13;10.77;;;6.25;;
75616;SDS011;64200;55.426;37.758;2023-06-24T14:31:15;10.10;;;5.68;;
75616;SDS011;64200;55.426;37.758;2023-06-24T14:36:15;7.70;;;4.60;;
75616;SDS011;64200;55.426;37.758;2023-06-24T14:41:16;6.60;;;5.13;;
75616;SDS011;64200;55.426;37.758;2023-06-24T14:46:16;7.20;;;4.80;;
75616;SDS011;64200;55.426;37.758;2023-06-24T14:51:17;5.70;;;4.30;;
75616;SDS011;64200;55.426;37.758;2023-06-24T14:56:18;10.57;;;3.92;;
75616;SDS011;64200;55.426;37.758;2023-06-24T15:01:18;4.97;;;3.00;;
75616;SDS011;64200;55.426;37.758;2023-06-24T15:06:19;5.95;;;3.10;;
75616;SDS011;64200;55.426;37.758;2023-06-24T15:11:19;4.70;;;3.20;;
75616;SDS011;64200;55.426;37.758;2023-06-24T15:16:20;4.50;;;3.33;;
75616;SDS011;64200;55.426;37.758;2023-06-24T15:21:20;5.40;;;2.90;;
75616;SDS011;64200;55.426;37.758;2023-06-24T15:26:21;4.57;;;3.00;;
75616;SDS011;64200;55.426;37.758;2023-06-24T15:31:21;5.47;;;2.60;;
75616;SDS011;64200;55.426;37.758;2023-06-24T15:36:22;5.03;;;3.65;;
75616;SDS011;64200;55.426;37.758;2023-06-24T15:41:26;3.90;;;2.88;;
75616;SDS011;64200;55.426;37.758;2023-06-24T15:46:27;6.90;;;3.25;;
75616;SDS011;64200;55.426;37.758;2023-06-24T15:51:27;4.65;;;2.92;;
75616;SDS011;64200;55.426;37.758;2023-06-24T15:56:28;6.32;;;4.18;;
75616;SDS011;64200;55.426;37.758;2023-06-24T16:01:28;5.60;;;3.13;;
75616;SDS011;64200;55.426;37.758;2023-06-24T16:06:29;3.88;;;3.20;;
75616;SDS011;64200;55.426;37.758;2023-06-24T16:11:30;5.85;;;3.10;;
75616;SDS011;64200;55.426;37.758;2023-06-24T16:16:30;3.53;;;2.73;;
75616;SDS011;64200;55.426;37.758;2023-06-24T16:21:31;4.35;;;2.95;;
75616;SDS011;64200;55.426;37.758;2023-06-24T16:26:33;7.53;;;3.83;;
75616;SDS011;64200;55.426;37.758;2023-06-24T16:31:33;7.27;;;3.03;;
75616;SDS011;64200;55.426;37.758;2023-06-24T16:36:34;7.60;;;3.47;;
75616;SDS011;64200;55.426;37.758;2023-06-24T16:41:34;5.38;;;3.10;;
75616;SDS011;64200;55.426;37.758;2023-06-24T16:46:44;6.25;;;3.78;;
75616;SDS011;64200;55.426;37.758;2023-06-24T16:51:44;4.83;;;3.17;;
75616;SDS011;64200;55.426;37.758;2023-06-24T16:56:45;8.37;;;3.40;;
75616;SDS011;64200;55.426;37.758;2023-06-24T17:01:46;7.60;;;4.05;;
75616;SDS011;64200;55.426;37.758;2023-06-24T17:06:46;5.57;;;3.85;;
75616;SDS011;64200;55.426;37.758;2023-06-24T17:11:47;8.03;;;4.03;;
75616;SDS011;64200;55.426;37.758;2023-06-24T17:16:47;9.63;;;4.90;;
75616;SDS011;64200;55.426;37.758;2023-06-24T17:21:48;11.15;;;4.15;;
75616;SDS011;64200;55.426;37.758;2023-06-24T17:26:49;6.30;;;4.03;;
75616;SDS011;64200;55.426;37.758;2023-06-24T17:31:49;6.00;;;4.20;;
75616;SDS011;64200;55.426;37.758;2023-06-24T17:36:50;7.50;;;4.35;;
75616;SDS011;64200;55.426;37.758;2023-06-24T17:41:51;7.73;;;4.40;;
75616;SDS011;64200;55.426;37.758;2023-06-24T17:46:51;6.55;;;4.43;;
75616;SDS011;64200;55.426;37.758;2023-06-24T17:51:52;7.20;;;4.85;;
75616;SDS011;64200;55.426;37.758;2023-06-24T17:56:52;6.63;;;4.10;;
75616;SDS011;64200;55.426;37.758;2023-06-24T18:01:53;7.53;;;4.55;;
75616;SDS011;64200;55.426;37.758;2023-06-24T18:06:53;7.93;;;5.40;;
75616;SDS011;64200;55.426;37.758;2023-06-24T18:11:54;6.85;;;4.80;;
75616;SDS011;64200;55.426;37.758;2023-06-24T18:16:55;8.50;;;4.57;;
75616;SDS011;64200;55.426;37.758;2023-06-24T18:21:55;5.85;;;4.78;;
75616;SDS011;64200;55.426;37.758;2023-06-24T18:26:56;5.85;;;4.70;;
75616;SDS011;64200;55.426;37.758;2023-06-24T18:31:57;8.45;;;5.05;;
75616;SDS011;64200;55.426;37.758;2023-06-24T18:36:57;9.33;;;4.83;;
75616;SDS011;64200;55.426;37.758;2023-06-24T18:41:58;6.63;;;4.55;;
75616;SDS011;64200;55.426;37.758;2023-06-24T18:46:58;8.25;;;4.63;;
75616;SDS011;64200;55.426;37.758;2023-06-24T18:51:59;7.20;;;4.63;;
75616;SDS011;64200;55.426;37.758;2023-06-24T18:56:59;7.10;;;4.70;;
75616;SDS011;64200;55.426;37.758;2023-06-24T19:02:00;6.40;;;4.82;;
75616;SDS011;64200;55.426;37.758;2023-06-24T19:07:00;7.43;;;4.32;;
75616;SDS011;64200;55.426;37.758;2023-06-24T19:12:01;7.07;;;5.00;;
75616;SDS011;64200;55.426;37.758;2023-06-24T19:17:02;6.90;;;4.43;;
75616;SDS011;64200;55.426;37.758;2023-06-24T19:22:03;6.72;;;4.97;;
75616;SDS011;64200;55.426;37.758;2023-06-24T19:27:04;8.38;;;4.53;;
75616;SDS011;64200;55.426;37.758;2023-06-24T19:32:05;7.00;;;5.15;;
75616;SDS011;64200;55.426;37.758;2023-06-24T19:37:06;6.75;;;5.13;;
75616;SDS011;64200;55.426;37.758;2023-06-24T19:42:06;8.30;;;5.77;;
75616;SDS011;64200;55.426;37.758;2023-06-24T19:47:07;9.43;;;6.63;;
75616;SDS011;64200;55.426;37.758;2023-06-24T19:52:07;11.95;;;7.28;;
75616;SDS011;64200;55.426;37.758;2023-06-24T19:57:08;12.03;;;8.40;;
75616;SDS011;64200;55.426;37.758;2023-06-24T20:02:08;13.55;;;8.18;;
75616;SDS011;64200;55.426;37.758;2023-06-24T20:07:09;11.43;;;7.43;;
75616;SDS011;64200;55.426;37.758;2023-06-24T20:12:10;9.88;;;7.43;;
75616;SDS011;64200;55.426;37.758;2023-06-24T20:17:10;10.45;;;7.07;;
75616;SDS011;64200;55.426;37.758;2023-06-24T20:22:12;12.75;;;7.93;;
75616;SDS011;64200;55.426;37.758;2023-06-24T20:27:13;10.80;;;8.13;;
75616;SDS011;64200;55.426;37.758;2023-06-24T20:32:13;11.45;;;7.53;;
75616;SDS011;64200;55.426;37.758;2023-06-24T20:37:14;12.70;;;8.57;;
75616;SDS011;64200;55.426;37.758;2023-06-24T20:42:14;11.63;;;7.37;;
75616;SDS011;64200;55.426;37.758;2023-06-24T20:47:15;8.73;;;6.23;;
75616;SDS011;64200;55.426;37.758;2023-06-24T20:52:15;11.37;;;8.10;;
75616;SDS011;64200;55.426;37.758;2023-06-24T20:57:16;10.10;;;6.83;;
75616;SDS011;64200;55.426;37.758;2023-06-24T21:02:16;11.10;;;7.40;;
75616;SDS011;64200;55.426;37.758;2023-06-24T21:07:17;9.68;;;6.78;;
75616;SDS011;64200;55.426;37.758;2023-06-24T21:12:18;7.57;;;5.80;;
75616;SDS011;64200;55.426;37.758;2023-06-24T21:17:18;12.03;;;6.90;;
75616;SDS011;64200;55.426;37.758;2023-06-24T21:22:19;8.73;;;6.53;;
75616;SDS011;64200;55.426;37.758;2023-06-24T21:27:19;10.18;;;6.65;;
75616;SDS011;64200;55.426;37.758;2023-06-24T21:32:20;9.20;;;6.28;;
75616;SDS011;64200;55.426;37.758;2023-06-24T21:37:20;10.50;;;6.00;;
75616;SDS011;64200;55.426;37.758;2023-06-24T21:42:21;12.17;;;7.90;;
75616;SDS011;64200;55.426;37.758;2023-06-24T21:47:22;10.77;;;6.32;;
75616;SDS011;64200;55.426;37.758;2023-06-24T21:52:22;10.93;;;6.03;;
75616;SDS011;64200;55.426;37.758;2023-06-24T21:57:23;9.52;;;6.38;;
75616;SDS011;64200;55.426;37.758;2023-06-24T22:02:23;8.18;;;6.15;;
75616;SDS011;64200;55.426;37.758;2023-06-24T22:07:24;9.18;;;5.80;;
75616;SDS011;64200;55.426;37.758;2023-06-24T22:12:25;11.85;;;6.72;;
75616;SDS011;64200;55.426;37.758;2023-06-24T22:17:25;9.45;;;5.70;;
75616;SDS011;64200;55.426;37.758;2023-06-24T22:22:26;10.37;;;7.13;;
75616;SDS011;64200;55.426;37.758;2023-06-24T22:27:26;7.37;;;5.80;;
75616;SDS011;64200;55.426;37.758;2023-06-24T22:32:27;9.40;;;7.03;;
75616;SDS011;64200;55.426;37.758;2023-06-24T22:37:27;10.70;;;7.25;;
75616;SDS011;64200;55.426;37.758;2023-06-24T22:42:28;9.27;;;6.75;;
75616;SDS011;64200;55.426;37.758;2023-06-24T22:47:28;9.37;;;6.17;;
75616;SDS011;64200;55.426;37.758;2023-06-24T22:52:29;13.20;;;7.50;;
75616;SDS011;64200;55.426;37.758;2023-06-24T22:57:29;10.13;;;5.87;;
75616;SDS011;64200;55.426;37.758;2023-06-24T23:02:30;11.20;;;7.00;;
75616;SDS011;64200;55.426;37.758;2023-06-24T23:07:31;9.70;;;6.15;;
75616;SDS011;64200;55.426;37.758;2023-06-24T23:12:31;10.18;;;6.43;;
75616;SDS011;64200;55.426;37.758;2023-06-24T23:17:33;8.30;;;5.80;;
75616;SDS011;64200;55.426;37.758;2023-06-24T23:22:34;7.63;;;5.40;;
75616;SDS011;64200;55.426;37.758;2023-06-24T23:27:34;7.43;;;5.55;;
75616;SDS011;64200;55.426;37.758;2023-06-24T23:32:38;7.43;;;5.28;;
75616;SDS011;64200;55.426;37.758;2023-06-24T23:37:39;9.25;;;5.40;;
75616;SDS011;64200;55.426;37.758;2023-06-24T23:42:40;7.95;;;6.10;;
75616;SDS011;64200;55.426;37.758;2023-06-24T23:47:42;8.93;;;6.05;;
75616;SDS011;64200;55.426;37.758;2023-06-24T23:52:43;9.88;;;5.80;;
75616;SDS011;64200;55.426;37.758;2023-06-24T23:57:43;10.10;;;6.53;;
